Time;durP1;ratioP1;P1;durP2;ratioP2;P2;SDS_P1;SDS_P2;PMS_P1;PMS_P2;Temp;Humidity;BMP_temperature;BMP_pressure;BME280_temperature;BME280_humidity;BME280_pressure;Samples;Min_cycle;Max_cycle;Signal;HPM_P1;HPM_P2
2021/09/16 00:02:07;;;;;;;;;8.67;8.00;;;;;21.63;58.82;101063.03;5084778;27;45295;-52
2021/09/16 00:04:32;;;;;;;;;9.00;8.00;;;;;21.60;58.95;101063.25;5066342;27;47161;-49
2021/09/16 00:06:58;;;;;;;;;7.00;6.00;;;;;21.57;58.70;101063.41;5066655;27;45360;-48
2021/09/16 00:09:23;;;;;;;;;8.33;7.67;;;;;21.55;59.38;101075.28;5084466;27;45328;-51
2021/09/16 00:11:49;;;;;;;;;7.00;7.00;;;;;21.55;59.23;101072.56;5084558;27;45606;-49
2021/09/16 00:14:14;;;;;;;;;9.33;8.00;;;;;21.51;59.51;101074.59;5084565;27;48206;-52
2021/09/16 00:16:40;;;;;;;;;10.33;8.00;;;;;21.50;59.55;101072.00;5083750;27;45354;-51
2021/09/16 00:19:05;;;;;;;;;8.00;8.00;;;;;21.49;59.35;101079.22;5084411;28;45616;-51
2021/09/16 00:21:31;;;;;;;;;6.67;6.67;;;;;21.50;59.57;101085.50;5079859;28;45228;-52
2021/09/16 00:23:57;;;;;;;;;9.33;9.33;;;;;21.48;59.90;101072.09;5062739;28;48007;-50
2021/09/16 00:26:22;;;;;;;;;7.50;7.50;;;;;21.47;59.73;101078.47;5087751;27;45813;-51
2021/09/16 00:28:48;;;;;;;;;8.67;7.00;;;;;21.43;59.47;101077.75;5084130;27;45330;-52
2021/09/16 00:31:13;;;;;;;;;8.00;7.67;;;;;21.41;59.54;101078.81;5086886;27;45933;-52
2021/09/16 00:33:39;;;;;;;;;6.67;6.67;;;;;21.39;59.43;101075.34;5069887;28;48087;-51
2021/09/16 00:36:04;;;;;;;;;9.33;8.33;;;;;21.39;59.67;101080.75;5081236;28;45339;-49
2021/09/16 00:38:30;;;;;;;;;7.33;7.33;;;;;21.35;59.50;101077.38;5080729;28;45457;-52
2021/09/16 00:40:55;;;;;;;;;5.00;5.00;;;;;21.34;59.89;101080.16;5080485;28;45483;-49
2021/09/16 00:43:21;;;;;;;;;8.33;8.00;;;;;21.31;60.01;101083.03;5070424;28;46465;-51
2021/09/16 00:45:46;;;;;;;;;8.67;7.00;;;;;21.30;59.80;101086.69;5080864;28;45961;-49
2021/09/16 00:48:12;;;;;;;;;9.00;9.00;;;;;21.28;60.11;101091.31;5062810;28;45345;-49
2021/09/16 00:50:37;;;;;;;;;9.33;8.00;;;;;21.27;60.36;101086.91;5080988;28;45560;-50
2021/09/16 00:53:03;;;;;;;;;9.67;9.67;;;;;21.26;60.51;101091.44;5082532;27;48259;-49
2021/09/16 00:55:30;;;;;;;;;7.25;7.25;;;;;21.25;59.94;101100.50;5080836;28;45443;-52
2021/09/16 00:58:01;;;;;;;;;10.50;10.50;;;;;21.21;60.30;101098.88;5081031;28;45444;-48
2021/09/16 01:00:27;;;;;;;;;10.00;8.25;;;;;21.19;60.65;101100.81;5081060;28;45426;-48
2021/09/16 01:02:53;;;;;;;;;8.00;8.00;;;;;21.19;60.54;101102.63;5077285;28;48229;-51
2021/09/16 01:05:18;;;;;;;;;8.67;7.33;;;;;21.15;60.52;101094.72;5080810;28;45360;-52
2021/09/16 01:07:44;;;;;;;;;7.33;7.33;;;;;21.15;60.23;101101.97;5082278;27;45706;-50
2021/09/16 01:10:11;;;;;;;;;9.00;8.67;;;;;21.14;60.56;101102.91;5072842;28;45350;-50
2021/09/16 01:12:38;;;;;;;;;8.00;8.00;;;;;21.14;60.89;101106.50;5080117;27;48033;-49
2021/09/16 01:15:06;;;;;;;;;6.67;6.67;;;;;21.12;60.70;101100.31;5080483;28;45869;-49
2021/09/16 01:17:31;;;;;;;;;10.00;10.00;;;;;21.09;60.50;101105.91;5080473;28;45240;-49
2021/09/16 01:19:57;;;;;;;;;9.00;9.00;;;;;21.07;61.14;101101.53;5062069;28;45338;-51
2021/09/16 01:22:23;;;;;;;;;7.67;7.67;;;;;21.07;60.74;101106.94;5080379;28;48295;-50
2021/09/16 01:24:49;;;;;;;;;12.00;11.67;;;;;21.04;60.37;101099.03;5080085;28;46168;-49
2021/09/16 01:27:16;;;;;;;;;9.00;9.00;;;;;21.05;61.10;101108.84;5089887;27;45403;-51
2021/09/16 01:29:42;;;;;;;;;11.33;9.67;;;;;21.07;60.54;101101.53;5080184;27;45442;-49
2021/09/16 01:32:09;;;;;;;;;8.00;8.00;;;;;21.10;61.05;101107.63;5061099;28;47043;-51
2021/09/16 01:34:35;;;;;;;;;12.25;11.25;;;;;21.16;60.70;101117.19;5061821;28;45402;-50
2021/09/16 01:37:01;;;;;;;;;8.75;8.75;;;;;21.18;60.91;101123.34;5079571;27;45528;-47
2021/09/16 01:39:26;;;;;;;;;10.25;9.50;;;;;21.22;61.09;101115.97;5061693;28;45851;-48
2021/09/16 01:41:52;;;;;;;;;8.25;8.00;;;;;21.24;60.92;101112.22;5079091;27;47413;-50
2021/09/16 01:44:19;;;;;;;;;10.33;9.67;;;;;21.26;60.66;101121.13;5079729;27;45318;-50
2021/09/16 01:46:45;;;;;;;;;8.00;7.50;;;;;21.25;60.02;101116.69;5079745;27;45393;-49
2021/09/16 01:49:11;;;;;;;;;9.75;8.50;;;;;21.23;60.53;101123.97;5079978;27;45791;-50
2021/09/16 01:51:37;;;;;;;;;12.00;10.00;;;;;21.22;59.79;101124.94;5084920;27;48313;-50
2021/09/16 01:54:05;;;;;;;;;8.67;8.67;;;;;21.20;59.88;101126.84;5079448;27;45497;-50
2021/09/16 01:56:31;;;;;;;;;7.00;5.75;;;;;21.21;60.22;101128.56;5080034;27;45341;-49
2021/09/16 01:58:56;;;;;;;;;13.25;10.25;;;;;21.24;60.49;101127.53;5079974;27;45568;-52
2021/09/16 02:01:22;;;;;;;;;8.75;8.00;;;;;21.27;60.45;101127.38;5079366;28;47341;-48
2021/09/16 02:03:48;;;;;;;;;8.00;8.00;;;;;21.30;60.13;101128.06;5061001;28;45414;-47
2021/09/16 02:06:14;;;;;;;;;9.00;9.00;;;;;21.32;60.34;101134.22;5061579;28;45313;-47
2021/09/16 02:08:40;;;;;;;;;12.00;10.50;;;;;21.34;60.08;101129.63;5079613;27;45318;-48
2021/09/16 02:11:06;;;;;;;;;12.50;9.75;;;;;21.35;59.85;101138.59;5078241;27;47942;-51
2021/09/16 02:13:31;;;;;;;;;10.00;10.00;;;;;21.35;59.72;101141.31;5079521;27;45965;-51
2021/09/16 02:15:57;;;;;;;;;8.00;8.00;;;;;21.36;60.31;101138.50;5079716;27;45397;-46
2021/09/16 02:18:22;;;;;;;;;10.75;9.75;;;;;21.36;59.69;101141.22;5078394;28;46162;-47
2021/09/16 02:20:48;;;;;;;;;10.75;10.75;;;;;21.38;60.00;101141.13;5079706;28;45704;-49
2021/09/16 02:23:13;;;;;;;;;8.00;7.50;;;;;21.36;59.78;101143.03;5079237;28;46035;-46
2021/09/16 02:25:39;;;;;;;;;9.00;8.50;;;;;21.32;59.40;101141.47;5080282;27;45617;-47
2021/09/16 02:28:04;;;;;;;;;12.00;12.00;;;;;21.30;59.29;101141.56;5085109;27;45467;-51
2021/09/16 02:30:30;;;;;;;;;10.75;9.50;;;;;21.28;59.50;101143.50;5060870;28;48083;-47
2021/09/16 02:32:55;;;;;;;;;11.00;10.75;;;;;21.28;59.98;101143.50;5092281;27;45344;-47
2021/09/16 02:35:21;;;;;;;;;9.75;9.75;;;;;21.28;59.53;101150.72;5079307;28;45418;-46
2021/09/16 02:37:46;;;;;;;;;11.50;11.50;;;;;21.30;59.54;101148.78;5079364;28;45851;-47
2021/09/16 02:40:12;;;;;;;;;11.00;10.50;;;;;21.31;59.50;101142.44;5079073;28;48277;-48
2021/09/16 02:42:39;;;;;;;;;11.33;10.33;;;;;21.28;59.59;101140.78;5060179;28;45401;-47
2021/09/16 02:45:06;;;;;;;;;11.75;9.25;;;;;21.27;59.37;101147.16;5049242;28;45508;-49
2021/09/16 02:47:31;;;;;;;;;9.00;9.00;;;;;21.27;59.48;101144.44;5079114;28;45401;-50
2021/09/16 02:49:57;;;;;;;;;9.00;9.00;;;;;21.27;59.53;101147.16;5078876;27;48170;-50
2021/09/16 02:52:23;;;;;;;;;13.50;11.25;;;;;21.28;59.56;101139.91;5079430;27;45286;-49
2021/09/16 02:54:48;;;;;;;;;11.67;11.67;;;;;21.25;59.63;101148.19;5040549;28;45343;-51
2021/09/16 02:57:14;;;;;;;;;10.75;10.75;;;;;21.20;59.23;101144.84;5058950;28;45628;-48
2021/09/16 02:59:39;;;;;;;;;9.33;9.33;;;;;21.16;59.08;101145.03;5058438;28;47149;-48
2021/09/16 03:02:05;;;;;;;;;8.33;8.33;;;;;21.16;59.40;101150.44;5078089;28;45400;-50
2021/09/16 03:04:30;;;;;;;;;8.33;8.33;;;;;21.16;59.62;101152.28;5078736;28;45646;-50
2021/09/16 03:06:56;;;;;;;;;8.75;8.75;;;;;21.15;59.21;101159.50;5078657;28;45368;-51
2021/09/16 03:09:23;;;;;;;;;8.75;8.75;;;;;21.16;59.40;101163.06;5082981;27;47254;-48
2021/09/16 03:11:48;;;;;;;;;9.33;9.33;;;;;21.15;59.44;101164.91;5077679;28;45351;-48
2021/09/16 03:14:14;;;;;;;;;11.67;10.33;;;;;21.15;59.29;101158.63;5078756;28;45306;-48
2021/09/16 03:16:39;;;;;;;;;8.00;8.00;;;;;21.11;59.13;101160.66;5079058;28;45618;-48
2021/09/16 03:19:05;;;;;;;;;11.00;10.67;;;;;21.08;59.72;101165.34;5078309;28;46226;-48
2021/09/16 03:21:30;;;;;;;;;8.00;8.00;;;;;21.02;59.46;101154.91;5078661;28;45781;-48
2021/09/16 03:23:56;;;;;;;;;10.00;8.00;;;;;20.98;59.40;101162.31;5078508;28;45471;-51
2021/09/16 03:26:21;;;;;;;;;11.00;9.33;;;;;20.97;60.05;101157.88;5081621;27;45467;-47
2021/09/16 03:28:47;;;;;;;;;8.67;8.33;;;;;20.96;59.57;101158.84;5066365;27;47786;-50
2021/09/16 03:31:12;;;;;;;;;10.33;10.33;;;;;20.96;59.36;101160.66;5078033;27;45714;-49
2021/09/16 03:33:38;;;;;;;;;9.00;9.00;;;;;20.95;60.06;101158.91;5078386;27;45409;-47
2021/09/16 03:36:04;;;;;;;;;10.33;10.33;;;;;20.93;59.77;101166.22;5078571;28;45388;-49
2021/09/16 03:38:30;;;;;;;;;9.00;8.00;;;;;20.91;59.81;101165.47;5077841;27;48619;-50
2021/09/16 03:40:56;;;;;;;;;8.00;8.00;;;;;20.88;59.65;101162.94;5077109;28;45416;-51
2021/09/16 03:43:21;;;;;;;;;9.33;9.33;;;;;20.86;59.62;101161.22;5078303;28;45475;-51
2021/09/16 03:45:47;;;;;;;;;9.67;7.67;;;;;20.85;59.45;101162.16;5078473;28;45282;-49
2021/09/16 03:48:12;;;;;;;;;7.00;7.00;;;;;20.83;60.27;101161.38;5059730;28;46101;-49
2021/09/16 03:50:38;;;;;;;;;8.67;8.00;;;;;20.79;59.75;101164.31;5078549;28;45390;-50
2021/09/16 03:53:03;;;;;;;;;9.00;9.00;;;;;20.76;59.64;101167.22;5065370;27;45235;-48
2021/09/16 03:55:29;;;;;;;;;8.33;8.33;;;;;20.73;59.97;101168.25;5081373;27;45524;-49
2021/09/16 03:57:54;;;;;;;;;9.33;8.00;;;;;20.70;60.19;101163.00;5081610;27;45658;-50
2021/09/16 04:00:20;;;;;;;;;10.00;10.00;;;;;20.68;60.46;101167.63;5081368;27;45819;-49
2021/09/16 04:02:46;;;;;;;;;10.00;10.00;;;;;20.65;60.11;101175.03;5081229;27;45262;-51
2021/09/16 04:05:12;;;;;;;;;7.00;7.00;;;;;20.63;60.05;101177.81;5081986;27;45415;-50
2021/09/16 04:07:37;;;;;;;;;7.33;7.33;;;;;20.61;59.72;101176.16;5076545;27;47378;-54
2021/09/16 04:10:06;;;;;;;;;11.25;10.25;;;;;20.60;59.84;101179.81;5075939;27;45440;-52
2021/09/16 04:12:32;;;;;;;;;8.00;8.00;;;;;20.58;60.20;101182.59;5081008;27;45325;-49
2021/09/16 04:14:58;;;;;;;;;9.67;9.33;;;;;20.56;60.32;101193.47;5083257;27;45236;-51
2021/09/16 04:17:23;;;;;;;;;11.00;10.00;;;;;20.54;59.94;101186.41;5079941;28;48544;-49
2021/09/16 04:19:48;;;;;;;;;10.00;9.33;;;;;20.51;60.23;101190.16;5077405;28;45287;-48
2021/09/16 04:22:14;;;;;;;;;11.67;9.00;;;;;20.50;60.19;101187.56;5062744;28;45313;-52
2021/09/16 04:24:39;;;;;;;;;10.67;10.67;;;;;20.46;60.36;101183.28;5078609;28;45467;-49
2021/09/16 04:27:05;;;;;;;;;10.00;9.67;;;;;20.48;60.06;101187.63;5079420;27;48087;-47
2021/09/16 04:29:31;;;;;;;;;7.67;7.33;;;;;20.46;59.83;101191.38;5079202;28;46331;-54
2021/09/16 04:31:57;;;;;;;;;10.00;8.00;;;;;20.44;60.59;101191.44;5078735;27;45583;-51
2021/09/16 04:34:22;;;;;;;;;9.00;9.00;;;;;20.43;60.38;101184.31;5079012;28;45599;-48
2021/09/16 04:36:49;;;;;;;;;8.25;7.00;;;;;20.43;60.23;101184.31;5080728;27;45688;-49
2021/09/16 04:39:14;;;;;;;;;9.50;9.00;;;;;20.45;60.25;101181.53;5080804;28;45421;-49
2021/09/16 04:41:40;;;;;;;;;10.00;10.00;;;;;20.46;60.18;101175.22;5079524;28;45483;-47
2021/09/16 04:44:05;;;;;;;;;10.25;9.50;;;;;20.47;60.37;101171.56;5074671;27;45464;-50
2021/09/16 04:46:31;;;;;;;;;14.50;11.00;;;;;20.50;60.37;101183.03;5075855;27;48172;-49
2021/09/16 04:48:57;;;;;;;;;12.25;9.00;;;;;20.49;60.31;101180.41;5076141;27;45352;-55
2021/09/16 04:51:22;;;;;;;;;11.00;11.00;;;;;20.46;60.25;101177.91;5068710;27;45358;-48
2021/09/16 04:53:48;;;;;;;;;10.75;10.75;;;;;20.45;60.46;101186.91;5083970;27;45642;-50
2021/09/16 04:56:13;;;;;;;;;8.00;8.00;;;;;20.43;59.98;101189.69;5080739;28;48109;-49
2021/09/16 04:58:39;;;;;;;;;11.75;10.50;;;;;20.41;60.01;101186.19;5062415;28;46707;-49
2021/09/16 05:01:04;;;;;;;;;12.00;11.50;;;;;20.39;60.07;101192.63;5072596;27;45611;-50
2021/09/16 05:03:30;;;;;;;;;11.00;11.00;;;;;20.35;60.33;101194.63;5076722;27;45538;-47
2021/09/16 05:05:55;;;;;;;;;9.00;8.75;;;;;20.34;60.76;101187.50;5077673;28;47280;-50
2021/09/16 05:08:21;;;;;;;;;10.00;10.00;;;;;20.35;60.79;101191.94;5074089;28;45832;-49
2021/09/16 05:10:46;;;;;;;;;13.50;13.50;;;;;20.35;60.35;101193.75;5079596;28;45279;-47
2021/09/16 05:13:11;;;;;;;;;12.00;10.25;;;;;20.34;60.44;101206.38;5080450;28;45369;-49
2021/09/16 05:15:37;;;;;;;;;8.75;8.50;;;;;20.36;60.79;101198.19;5073625;28;45383;-50
2021/09/16 05:18:03;;;;;;;;;10.50;10.50;;;;;20.38;60.32;101201.66;5074110;27;45520;-48
2021/09/16 05:20:28;;;;;;;;;10.00;10.00;;;;;20.37;60.86;101202.63;5069778;27;45565;-54
2021/09/16 05:22:54;;;;;;;;;14.50;14.25;;;;;20.39;60.72;101196.19;5080503;27;45367;-48
2021/09/16 05:25:19;;;;;;;;;14.25;11.00;;;;;20.40;60.90;101203.31;5076095;27;47379;-48
2021/09/16 05:27:45;;;;;;;;;15.00;14.25;;;;;20.41;60.82;101205.06;5087373;27;45413;-47
2021/09/16 05:30:11;;;;;;;;;15.75;13.00;;;;;20.41;60.43;101206.88;5076067;27;45478;-49
2021/09/16 05:32:38;;;;;;;;;12.00;9.50;;;;;20.41;61.37;101205.06;5081242;27;45880;-58
2021/09/16 05:35:07;;;;;;;;;12.50;12.50;;;;;20.45;60.98;101208.47;5077997;28;46294;-58
2021/09/16 05:37:33;;;;;;;;;13.25;11.50;;;;;20.41;60.82;101210.44;5079843;27;45446;-58
2021/09/16 05:39:59;;;;;;;;;12.00;12.00;;;;;20.38;60.84;101207.94;5079514;28;45411;-58
2021/09/16 05:42:26;;;;;;;;;9.33;8.33;;;;;20.40;61.22;101208.72;5073127;27;45509;-58
2021/09/16 05:44:52;;;;;;;;;15.00;12.25;;;;;20.43;61.28;101213.09;5039405;28;48165;-58
2021/09/16 05:47:18;;;;;;;;;16.00;13.00;;;;;20.45;61.01;101219.28;5060969;28;45401;-58
2021/09/16 05:49:43;;;;;;;;;13.67;12.67;;;;;20.43;60.46;101213.09;5079448;27;45373;-58
2021/09/16 05:52:09;;;;;;;;;12.33;11.00;;;;;20.41;60.66;101212.28;5082783;27;45332;-58
2021/09/16 05:54:34;;;;;;;;;10.67;10.67;;;;;20.40;61.24;101207.84;5078992;27;47919;-58
2021/09/16 05:57:00;;;;;;;;;10.00;10.00;;;;;20.42;61.17;101214.06;5072581;28;45505;-58
2021/09/16 05:59:25;;;;;;;;;12.67;12.67;;;;;20.43;61.43;101216.66;5072572;27;45363;-59
2021/09/16 06:01:51;;;;;;;;;9.67;9.67;;;;;20.45;61.47;101221.97;5058897;28;45441;-59
2021/09/16 06:04:16;;;;;;;;;8.50;8.50;;;;;20.46;61.56;101223.72;5049840;28;45461;-58
2021/09/16 06:06:42;;;;;;;;;7.25;7.25;;;;;20.44;61.28;101223.78;5077524;28;46062;-58
2021/09/16 06:09:07;;;;;;;;;13.75;12.00;;;;;20.44;60.89;101228.31;5079394;27;45348;-59
2021/09/16 06:11:33;;;;;;;;;8.00;8.00;;;;;20.43;61.28;101235.53;5080352;28;45613;-59
2021/09/16 06:13:58;;;;;;;;;10.75;10.75;;;;;20.43;60.49;101238.22;5070251;28;48197;-58
2021/09/16 06:16:24;;;;;;;;;12.33;11.33;;;;;20.42;60.87;101241.88;5080095;27;45420;-59
2021/09/16 06:18:49;;;;;;;;;11.00;10.00;;;;;20.43;60.91;101249.00;5059678;28;45434;-58
2021/09/16 06:21:16;;;;;;;;;11.25;11.25;;;;;20.43;61.32;101246.31;5079263;27;45829;-59
2021/09/16 06:23:42;;;;;;;;;9.00;9.00;;;;;20.45;61.27;101257.88;5078882;28;48297;-58
2021/09/16 06:26:08;;;;;;;;;10.25;10.25;;;;;20.49;61.10;101258.63;5083845;27;45672;-58
2021/09/16 06:28:33;;;;;;;;;9.33;7.67;;;;;20.49;61.00;101251.38;5064918;28;45617;-58
2021/09/16 06:30:59;;;;;;;;;11.00;10.50;;;;;20.52;60.64;101253.03;5082848;27;45629;-58
2021/09/16 06:33:24;;;;;;;;;10.25;9.00;;;;;20.54;60.95;101253.81;5094533;27;47148;-58
2021/09/16 06:35:50;;;;;;;;;11.33;11.33;;;;;20.55;60.60;101256.44;5078027;28;45595;-58
2021/09/16 06:38:15;;;;;;;;;12.67;10.00;;;;;20.56;60.96;101255.47;5075405;28;45432;-58
2021/09/16 06:40:41;;;;;;;;;13.00;11.50;;;;;20.58;61.01;101260.78;5059385;28;45514;-58
2021/09/16 06:43:07;;;;;;;;;10.00;9.33;;;;;20.61;60.89;101271.44;5078614;27;48154;-58
2021/09/16 06:45:33;;;;;;;;;10.67;10.00;;;;;20.63;60.43;101268.63;5078455;28;45874;-59
2021/09/16 06:47:58;;;;;;;;;8.00;7.00;;;;;20.64;59.97;101265.84;5060162;28;45403;-59
2021/09/16 06:50:24;;;;;;;;;9.00;9.00;;;;;20.66;60.52;101272.03;5080380;27;45491;-58
2021/09/16 06:52:50;;;;;;;;;9.00;7.00;;;;;20.69;60.31;101268.28;5078309;27;47402;-58
2021/09/16 06:55:15;;;;;;;;;12.67;9.00;;;;;20.71;60.17;101267.28;5078670;27;45849;-58
2021/09/16 06:57:41;;;;;;;;;10.75;10.00;;;;;20.74;60.36;101269.78;5079172;28;45360;-58
2021/09/16 07:00:07;;;;;;;;;10.50;8.75;;;;;20.76;59.88;101272.41;5067752;27;45761;-58
2021/09/16 07:02:34;;;;;;;;;8.00;8.00;;;;;20.78;59.95;101268.66;5078337;28;48347;-58
2021/09/16 07:05:00;;;;;;;;;8.67;8.67;;;;;20.81;59.77;101264.91;5075406;28;45601;-60
2021/09/16 07:07:25;;;;;;;;;8.00;8.00;;;;;20.81;59.61;101262.22;5081258;27;45445;-58
2021/09/16 07:09:51;;;;;;;;;8.00;7.00;;;;;20.79;59.98;101265.00;5061912;28;45354;-58
2021/09/16 07:12:16;;;;;;;;;8.00;8.00;;;;;20.79;59.51;101262.31;5078163;27;47544;-58
2021/09/16 07:14:42;;;;;;;;;6.00;6.00;;;;;20.79;59.49;101262.31;5078124;28;45930;-58
2021/09/16 07:17:07;;;;;;;;;9.67;8.67;;;;;20.81;59.48;101271.19;5077522;28;45385;-58
2021/09/16 07:19:33;;;;;;;;;7.67;7.67;;;;;20.83;59.75;101265.69;5047680;28;45826;-59
2021/09/16 07:21:59;;;;;;;;;10.00;10.00;;;;;20.85;59.89;101266.50;5070858;28;48164;-59
2021/09/16 07:24:24;;;;;;;;;10.67;9.00;;;;;20.88;59.20;101274.41;5078401;27;45376;-61
2021/09/16 07:26:50;;;;;;;;;10.67;10.33;;;;;20.91;59.55;101265.28;5085013;27;45539;-60
2021/09/16 07:29:18;;;;;;;;;7.67;7.67;;;;;20.93;59.37;101274.16;5078979;27;45552;-59
2021/09/16 07:31:44;;;;;;;;;9.33;9.33;;;;;20.96;59.36;101269.47;5063409;28;47829;-59
2021/09/16 07:34:10;;;;;;;;;12.33;10.33;;;;;21.00;59.55;101270.16;5081521;27;45549;-58
2021/09/16 07:36:35;;;;;;;;;7.67;7.67;;;;;21.02;59.05;101271.81;5081097;27;45330;-58
2021/09/16 07:39:01;;;;;;;;;7.67;7.67;;;;;21.07;58.82;101279.66;5081782;27;45293;-58
2021/09/16 07:41:26;;;;;;;;;7.33;7.33;;;;;21.08;59.10;101276.84;5092223;27;47338;-58
2021/09/16 07:43:52;;;;;;;;;10.33;10.33;;;;;21.12;58.69;101277.56;5063873;28;45542;-59
2021/09/16 07:46:17;;;;;;;;;7.67;7.67;;;;;21.15;58.91;101282.78;5081451;27;45479;-58
2021/09/16 07:48:43;;;;;;;;;8.67;8.67;;;;;21.17;58.79;101287.13;5081481;28;45414;-58
2021/09/16 07:51:08;;;;;;;;;8.67;8.67;;;;;21.18;58.47;101288.00;5082401;27;47296;-58
2021/09/16 07:53:34;;;;;;;;;8.00;8.00;;;;;21.19;58.04;101291.56;5081165;28;45873;-58
2021/09/16 07:56:00;;;;;;;;;6.67;6.67;;;;;21.21;58.40;101285.13;5082055;28;45507;-58
2021/09/16 07:58:26;;;;;;;;;8.00;8.00;;;;;21.19;57.71;101289.75;5085997;27;46098;-58
2021/09/16 08:00:51;;;;;;;;;7.67;7.00;;;;;21.19;57.98;101287.03;5062564;28;47219;-59
2021/09/16 08:03:18;;;;;;;;;8.00;8.00;;;;;21.21;57.74;101292.34;5086138;27;45437;-59
2021/09/16 08:05:45;;;;;;;;;8.67;8.67;;;;;21.22;58.16;101294.13;5071479;28;45341;-59
2021/09/16 08:08:10;;;;;;;;;8.00;8.00;;;;;21.22;58.08;101296.81;5071243;27;45470;-59
2021/09/16 08:10:36;;;;;;;;;6.00;6.00;;;;;21.22;57.76;101304.91;5084756;27;47337;-59
2021/09/16 08:13:03;;;;;;;;;7.33;7.00;;;;;21.24;58.08;101298.47;5065641;28;45395;-58
2021/09/16 08:15:28;;;;;;;;;6.00;5.00;;;;;21.28;57.74;101307.28;5086852;27;45368;-59
2021/09/16 08:17:54;;;;;;;;;7.67;6.00;;;;;21.30;57.34;101300.84;5064692;28;45405;-59
2021/09/16 08:20:20;;;;;;;;;7.67;6.00;;;;;21.31;57.20;101299.88;5049161;27;46101;-60
2021/09/16 08:22:46;;;;;;;;;7.00;7.00;;;;;21.34;57.67;101293.44;5064005;28;45299;-59
2021/09/16 08:25:14;;;;;;;;;4.33;4.33;;;;;21.35;56.62;101293.38;5084162;27;45359;-60
2021/09/16 08:27:41;;;;;;;;;4.00;4.00;;;;;21.35;56.55;101289.81;5069345;28;45357;-59
2021/09/16 08:30:09;;;;;;;;;3.67;3.67;;;;;21.36;55.70;101295.09;5067725;27;45575;-59
2021/09/16 08:32:35;;;;;;;;;2.00;2.00;;;;;21.38;56.33;101295.00;5065367;28;45695;-59
2021/09/16 08:35:05;;;;;;;;;3.67;3.67;;;;;21.41;56.02;101300.22;5061500;27;45495;-60
2021/09/16 08:37:31;;;;;;;;;3.67;3.67;;;;;21.42;55.65;101297.44;5081020;27;45604;-59
2021/09/16 08:39:56;;;;;;;;;2.67;2.67;;;;;21.42;55.22;101289.34;5080101;27;48580;-59
2021/09/16 08:42:25;;;;;;;;;3.00;3.00;;;;;21.42;55.43;101293.88;5085808;27;45371;-59
2021/09/16 08:44:53;;;;;;;;;3.00;3.00;;;;;21.46;55.43;101295.41;5080733;27;45707;-59
2021/09/16 08:47:20;;;;;;;;;4.00;4.00;;;;;21.47;54.75;101293.59;5062599;27;45710;-60
2021/09/16 08:49:46;;;;;;;;;2.00;2.00;;;;;21.48;55.01;101296.22;5064254;27;47722;-59
2021/09/16 08:52:12;;;;;;;;;1.00;1.00;;;;;21.49;54.52;101299.81;5062308;28;45729;-59
2021/09/16 08:54:39;;;;;;;;;3.00;3.00;;;;;21.48;55.38;101298.94;5080510;27;45507;-59
2021/09/16 08:57:06;;;;;;;;;3.00;3.00;;;;;21.52;54.50;101305.88;5062441;28;45405;-59
2021/09/16 08:59:31;;;;;;;;;4.33;4.33;;;;;21.54;54.59;101297.69;5080447;27;47705;-60
2021/09/16 09:01:57;;;;;;;;;2.00;2.00;;;;;21.56;54.00;101306.56;5079841;27;45494;-60
2021/09/16 09:04:23;;;;;;;;;3.00;3.00;;;;;21.58;53.98;101305.50;5080656;27;45769;-60
2021/09/16 09:07:00;;;;;;;;;2.33;2.33;;;;;21.59;53.85;101300.97;5061965;28;45499;-60
2021/09/16 09:09:25;;;;;;;;;2.33;2.33;;;;;21.60;53.57;101302.75;5052759;27;47383;-60
2021/09/16 09:12:13;;;;;;;;;3.00;3.00;;;;;21.59;53.97;101309.09;5082615;27;45462;-59
2021/09/16 09:14:42;;;;;;;;;3.33;3.33;;;;;21.61;54.29;101315.28;5079838;27;45744;-59
2021/09/16 09:17:23;;;;;;;;;3.00;3.00;;;;;21.64;54.02;101318.69;5080000;27;45306;-59
2021/09/16 09:19:50;;;;;;;;;4.00;3.67;;;;;21.67;54.62;101314.91;5079919;27;48220;-59
2021/09/16 09:22:17;;;;;;;;;3.00;3.00;;;;;21.70;54.06;101315.59;5080315;27;45577;-59
2021/09/16 09:24:46;;;;;;;;;3.00;3.00;;;;;21.72;54.29;101308.31;5072991;27;45505;-60
2021/09/16 09:27:30;;;;;;;;;1.67;1.67;;;;;21.74;53.76;101311.78;5084991;27;45385;-59
2021/09/16 09:30:19;;;;;;;;;2.33;2.33;;;;;21.79;53.45;101311.50;5084879;27;48783;-60
2021/09/16 09:33:00;;;;;;;;;3.33;3.00;;;;;21.82;53.34;101322.13;5086603;27;45493;-59
2021/09/16 09:35:28;;;;;;;;;3.33;3.33;;;;;21.83;52.92;101323.84;5076521;27;45616;-60
2021/09/16 09:37:55;;;;;;;;;5.00;5.00;;;;;21.83;52.75;101325.69;5079407;28;45381;-60
2021/09/16 09:40:26;;;;;;;;;2.00;2.00;;;;;21.84;52.73;101317.50;5062066;28;47055;-60
2021/09/16 09:42:52;;;;;;;;;2.00;2.00;;;;;21.87;52.52;101319.16;5071221;28;45355;-60
2021/09/16 09:45:17;;;;;;;;;4.00;4.00;;;;;21.90;52.55;101318.97;5079524;27;45742;-60
2021/09/16 09:47:46;;;;;;;;;4.00;4.00;;;;;21.92;52.23;101312.50;5079286;28;45443;-60
2021/09/16 09:50:20;;;;;;;;;3.00;3.00;;;;;21.92;52.29;101309.81;5079365;27;48701;-60
2021/09/16 09:52:46;;;;;;;;;3.00;2.67;;;;;21.91;51.79;101313.47;5060412;28;45443;-60
2021/09/16 09:55:15;;;;;;;;;1.67;1.67;;;;;21.92;51.89;101317.03;5070374;28;45762;-60
2021/09/16 09:57:40;;;;;;;;;4.00;4.00;;;;;21.94;51.98;101316.00;5087959;27;45302;-60
2021/09/16 10:00:07;;;;;;;;;2.00;2.00;;;;;21.97;51.60;101315.78;5074382;28;45725;-60
2021/09/16 10:02:38;;;;;;;;;3.00;3.00;;;;;22.01;51.82;101321.91;5079031;27;45653;-59
2021/09/16 10:05:19;;;;;;;;;4.00;4.00;;;;;22.06;52.46;101321.66;5060573;28;45394;-59
2021/09/16 10:07:45;;;;;;;;;3.00;2.00;;;;;22.10;52.18;101318.66;5050503;27;45410;-59
2021/09/16 10:10:12;;;;;;;;;4.00;3.67;;;;;22.17;52.22;101317.34;5084858;27;48036;-58
2021/09/16 10:12:39;;;;;;;;;7.00;4.00;;;;;22.23;51.88;101316.09;5079436;28;45374;-60
2021/09/16 10:15:07;;;;;;;;;3.00;3.00;;;;;22.25;51.60;101317.78;5079303;27;45256;-62
2021/09/16 10:17:33;;;;;;;;;4.00;4.00;;;;;22.27;51.52;101312.25;5079789;28;45510;-60
2021/09/16 10:20:00;;;;;;;;;9.00;8.00;;;;;22.29;51.22;101307.63;5079078;28;47342;-60
2021/09/16 10:22:26;;;;;;;;;4.00;4.00;;;;;22.30;51.18;101303.97;5078758;28;45500;-60
2021/09/16 10:24:53;;;;;;;;;3.67;3.33;;;;;22.31;50.87;101308.41;5078962;28;45397;-60
2021/09/16 10:27:41;;;;;;;;;4.33;3.33;;;;;22.33;50.77;101296.50;5072515;27;45521;-60
2021/09/16 10:30:22;;;;;;;;;2.00;2.00;;;;;22.35;51.06;101296.41;5061149;27;47180;-60
2021/09/16 10:33:02;;;;;;;;;3.00;3.00;;;;;22.34;51.30;101300.09;5081323;27;45369;-61
2021/09/16 10:35:28;;;;;;;;;3.00;3.00;;;;;22.35;50.99;101300.97;5078328;28;45701;-60
2021/09/16 10:37:54;;;;;;;;;5.00;4.67;;;;;22.36;50.52;101294.59;5077916;27;45409;-60
2021/09/16 10:40:27;;;;;;;;;5.33;5.33;;;;;22.37;50.52;101299.94;5078459;27;48485;-59
2021/09/16 10:43:01;;;;;;;;;3.00;3.00;;;;;22.36;50.37;101292.78;5060246;28;45365;-59
2021/09/16 10:45:37;;;;;;;;;7.00;4.67;;;;;22.34;49.98;101297.38;5060719;28;45382;-59
2021/09/16 10:48:18;;;;;;;;;6.00;6.00;;;;;22.35;50.79;101292.84;5078092;27;45761;-59
2021/09/16 10:50:46;;;;;;;;;4.00;4.00;;;;;22.40;50.57;101288.91;5069613;27;48350;-60
2021/09/16 10:53:34;;;;;;;;;5.00;4.00;;;;;22.52;50.76;101298.09;5078292;27;45484;-59
2021/09/16 10:56:01;;;;;;;;;3.67;3.67;;;;;22.64;50.43;101288.34;5078690;27;45836;-59
2021/09/16 10:58:27;;;;;;;;;7.00;7.00;;;;;22.73;50.73;101291.31;5078186;27;45488;-59
2021/09/16 11:00:54;;;;;;;;;5.67;5.00;;;;;22.83;50.12;101297.06;5077624;27;45492;-59
2021/09/16 11:03:20;;;;;;;;;2.67;2.67;;;;;22.90;50.38;101284.88;5078319;27;45689;-59
2021/09/16 11:05:51;;;;;;;;;3.00;3.00;;;;;22.96;49.63;101284.47;5078533;27;45362;-59
2021/09/16 11:08:19;;;;;;;;;6.00;6.00;;;;;22.98;49.83;101281.66;5069434;28;45534;-58
2021/09/16 11:10:44;;;;;;;;;6.00;6.00;;;;;22.98;50.47;101282.53;5080562;27;48223;-59
2021/09/16 11:13:31;;;;;;;;;8.00;7.67;;;;;23.00;49.87;101288.75;5077813;28;45385;-59
2021/09/16 11:15:56;;;;;;;;;5.33;5.33;;;;;22.99;49.60;101278.84;5078672;27;45366;-58
2021/09/16 11:18:23;;;;;;;;;6.33;5.33;;;;;22.97;49.38;101288.91;5060174;28;45492;-56
2021/09/16 11:20:55;;;;;;;;;5.33;5.33;;;;;22.98;49.58;101289.78;5078263;28;47354;-60